createdAt,value
2018-05-31T00:00:04.383Z,0
2018-05-31T00:01:33.251Z,0
2018-05-31T00:02:03.427Z,0
2018-05-31T00:04:04.046Z,0
2018-05-31T00:05:03.762Z,0
2018-05-31T00:06:03.843Z,0
2018-05-31T00:07:04.092Z,0
2018-05-31T00:08:03.847Z,0
2018-05-31T00:09:18.818Z,0
2018-05-31T00:10:04.433Z,0
2018-05-31T00:11:04.197Z,0
2018-05-31T00:12:04.253Z,0
2018-05-31T00:13:03.958Z,0
2018-05-31T00:15:04.051Z,0
2018-05-31T00:16:18.985Z,0
2018-05-31T00:17:04.393Z,0
2018-05-31T00:18:19.011Z,0
2018-05-31T00:19:05.003Z,0
2018-05-31T00:20:04.413Z,0
2018-05-31T00:21:04.196Z,0
2018-05-31T00:22:19.110Z,0
2018-05-31T00:25:11.650Z,0
2018-05-31T00:25:27.434Z,0
2018-05-31T00:26:42.136Z,0
2018-05-31T00:27:27.801Z,0
2018-05-31T00:28:27.411Z,0
2018-05-31T00:30:11.775Z,0
2018-05-31T00:30:27.870Z,0
2018-05-31T00:31:28.386Z,0
2018-05-31T00:32:42.547Z,0
2018-05-31T00:33:27.933Z,0
2018-05-31T00:35:57.255Z,0
2018-05-31T00:36:27.724Z,0
2018-05-31T00:39:35.168Z,0
2018-05-31T00:39:51.276Z,0
2018-05-31T00:40:51.286Z,0
2018-05-31T00:42:59.590Z,0
2018-05-31T00:44:14.256Z,0
2018-05-31T00:46:14.572Z,0
2018-05-31T00:48:43.926Z,0
2018-05-31T00:50:38.110Z,0
2018-05-31T00:51:08.348Z,0
2018-05-31T00:52:52.559Z,0
2018-05-31T00:53:52.584Z,0
2018-05-31T00:58:24.391Z,0
2018-05-31T00:58:55.260Z,0
2018-05-31T00:59:55.300Z,0
2018-05-31T01:01:55.197Z,0
2018-05-31T01:02:55.396Z,0
2018-05-31T01:05:55.066Z,0
2018-05-31T01:07:09.972Z,0
2018-05-31T01:07:55.388Z,0
2018-05-31T01:09:10.003Z,0
2018-05-31T01:09:55.383Z,0
2018-05-31T01:11:10.097Z,0
2018-05-31T01:12:39.386Z,0
2018-05-31T01:12:56.323Z,0
2018-05-31T01:14:10.181Z,0
2018-05-31T01:15:24.818Z,0
2018-05-31T01:15:55.583Z,0
2018-05-31T01:18:10.580Z,0
2018-05-31T01:18:55.364Z,0
2018-05-31T01:19:55.643Z,0
2018-05-31T01:21:24.983Z,0
2018-05-31T01:22:24.993Z,0
2018-05-31T01:25:55.554Z,0
2018-05-31T01:26:56.386Z,0
2018-05-31T01:28:10.215Z,0
2018-05-31T01:29:25.201Z,0
2018-05-31T01:29:55.921Z,0
2018-05-31T01:31:25.200Z,0
2018-05-31T01:33:06.489Z,0
2018-05-31T01:34:05.853Z,0
2018-05-31T01:36:58.397Z,0
2018-05-31T01:37:29.118Z,0
2018-05-31T01:38:29.159Z,0
2018-05-31T01:40:13.103Z,0
2018-05-31T01:40:29.175Z,0
2018-05-31T01:41:43.871Z,0
2018-05-31T01:42:58.526Z,0
2018-05-31T01:43:29.286Z,0
2018-05-31T01:45:13.231Z,0
2018-05-31T01:45:43.682Z,0
2018-05-31T01:46:44.008Z,0
2018-05-31T01:48:44.013Z,0
2018-05-31T01:49:29.143Z,0
2018-05-31T01:51:44.096Z,0
2018-05-31T01:52:44.149Z,0
2018-05-31T01:53:44.166Z,0
2018-05-31T01:54:30.677Z,0
2018-05-31T01:55:29.371Z,0
2018-05-31T01:56:58.868Z,0
2018-05-31T01:57:29.581Z,0
2018-05-31T01:58:29.653Z,0
2018-05-31T01:59:44.027Z,0
2018-05-31T02:00:44.344Z,0
2018-05-31T02:03:23.272Z,4
2018-05-31T02:03:52.955Z,4
2018-05-31T02:04:52.713Z,4
2018-05-31T02:06:22.285Z,0
2018-05-31T02:06:53.608Z,0
2018-05-31T02:07:53.239Z,4
2018-05-31T02:10:45.550Z,4
2018-05-31T02:11:16.829Z,4
2018-05-31T02:12:16.315Z,4
2018-05-31T02:13:16.360Z,8
2018-05-31T02:14:31.713Z,8
2018-05-31T02:15:31.044Z,4
2018-05-31T02:17:30.296Z,12
2018-05-31T02:18:30.617Z,12
2018-05-31T02:19:45.503Z,12
2018-05-31T02:20:30.901Z,16
2018-05-31T02:21:46.019Z,16
2018-05-31T02:22:32.056Z,16
2018-05-31T02:23:45.633Z,20
2018-05-31T02:24:30.763Z,24
2018-05-31T02:25:31.038Z,20
2018-05-31T02:26:31.027Z,28
2018-05-31T02:27:30.530Z,28
2018-05-31T02:28:30.850Z,28
2018-05-31T02:29:30.890Z,32
2018-05-31T02:30:31.016Z,40
2018-05-31T02:31:32.266Z,44
2018-05-31T02:32:31.233Z,52
2018-05-31T02:33:46.062Z,56
2018-05-31T02:34:31.232Z,60
2018-05-31T02:35:30.985Z,64
2018-05-31T02:36:31.347Z,72
2018-05-31T02:37:46.008Z,80
2018-05-31T02:38:31.329Z,88
2018-05-31T02:39:45.751Z,96
2018-05-31T02:40:32.497Z,104
2018-05-31T02:41:31.149Z,112
2018-05-31T02:43:31.443Z,132
2018-05-31T02:44:30.940Z,140
2018-05-31T02:45:31.260Z,156
2018-05-31T02:46:31.278Z,164
2018-05-31T02:47:31.583Z,180
2018-05-31T02:48:31.573Z,196
2018-05-31T02:49:33.128Z,212
2018-05-31T02:50:31.603Z,228
2018-05-31T02:51:31.421Z,248
2018-05-31T02:52:31.401Z,264
2018-05-31T02:53:31.757Z,284
2018-05-31T02:54:46.392Z,316
2018-05-31T02:55:46.388Z,336
2018-05-31T02:56:31.820Z,356
2018-05-31T02:57:31.779Z,380
2018-05-31T02:58:32.675Z,404
2018-05-31T02:59:45.950Z,436
2018-05-31T03:00:31.637Z,452
2018-05-31T03:01:31.653Z,480
2018-05-31T03:02:31.689Z,512
2018-05-31T03:03:31.669Z,536
2018-05-31T03:05:32.030Z,604
2018-05-31T03:06:32.024Z,632
2018-05-31T03:07:32.678Z,668
2018-05-31T03:08:31.528Z,696
2018-05-31T03:09:31.921Z,728
2018-05-31T03:10:32.155Z,764
2018-05-31T03:11:32.181Z,804
2018-05-31T03:12:31.889Z,852
2018-05-31T03:13:46.565Z,916
2018-05-31T03:14:31.398Z,960
2018-05-31T03:15:32.014Z,1020
2018-05-31T03:16:33.295Z,1084
2018-05-31T03:17:32.048Z,1152
2018-05-31T03:19:46.980Z,1304
2018-05-31T03:20:46.744Z,1380
2018-05-31T03:21:46.749Z,1460
2018-05-31T03:22:32.413Z,1528
2018-05-31T03:23:32.446Z,1628
2018-05-31T03:24:47.128Z,1764
2018-05-31T03:25:33.446Z,1860
2018-05-31T03:27:32.559Z,2084
2018-05-31T03:28:32.269Z,2184
2018-05-31T03:29:32.319Z,2280
2018-05-31T03:31:32.427Z,2476
2018-05-31T03:32:32.412Z,2580
2018-05-31T03:33:32.682Z,2684
2018-05-31T03:34:32.958Z,2788
2018-05-31T03:35:32.740Z,2904
2018-05-31T03:36:32.756Z,3020
2018-05-31T03:37:32.520Z,3136
2018-05-31T03:38:32.245Z,3248
2018-05-31T03:39:32.295Z,3380
2018-05-31T03:40:32.591Z,3640
2018-05-31T03:41:32.895Z,3648
2018-05-31T03:42:47.551Z,3732
2018-05-31T03:43:32.809Z,3824
2018-05-31T03:44:47.319Z,4040
2018-05-31T03:45:32.414Z,4320
2018-05-31T03:46:32.763Z,4372
2018-05-31T03:47:33.266Z,4264
2018-05-31T03:48:47.713Z,4512
2018-05-31T03:49:32.828Z,4628
2018-05-31T03:50:47.752Z,4668
2018-05-31T03:51:33.116Z,4708
2018-05-31T03:52:33.848Z,4816
2018-05-31T03:53:32.913Z,4912
2018-05-31T03:54:33.198Z,5200
2018-05-31T03:55:33.231Z,5428
2018-05-31T03:56:33.243Z,5360
2018-05-31T03:57:33.309Z,5356
2018-05-31T03:59:47.688Z,5652
2018-05-31T04:00:33.372Z,5704
2018-05-31T04:01:33.472Z,5740
2018-05-31T04:02:33.145Z,5908
2018-05-31T04:03:33.422Z,6052
2018-05-31T04:04:48.097Z,6300
2018-05-31T04:05:47.850Z,6648
2018-05-31T04:07:33.511Z,7684
2018-05-31T04:08:33.299Z,9984
2018-05-31T04:10:34.691Z,22272
2018-05-31T04:11:33.077Z,23456
2018-05-31T04:12:33.651Z,23200
2018-05-31T04:13:33.704Z,23776
2018-05-31T04:14:48.317Z,19840
2018-05-31T04:15:33.754Z,14208
2018-05-31T04:16:33.761Z,10536
2018-05-31T04:17:33.753Z,9824
2018-05-31T04:18:48.467Z,8420
2018-05-31T04:19:34.681Z,8692
2018-05-31T04:20:33.862Z,8984
2018-05-31T04:21:33.613Z,8384
2018-05-31T04:22:33.630Z,8656
2018-05-31T04:23:48.593Z,10688
2018-05-31T04:24:33.699Z,15264
2018-05-31T04:25:33.997Z,23520
2018-05-31T04:26:33.979Z,25088
2018-05-31T04:28:34.171Z,22880
2018-05-31T04:29:48.715Z,26368
2018-05-31T04:30:34.139Z,29152
2018-05-31T04:31:34.160Z,30560
2018-05-31T04:32:48.783Z,30688
2018-05-31T04:33:33.952Z,32064
2018-05-31T04:34:34.232Z,32640
2018-05-31T04:35:48.860Z,30688
2018-05-31T04:36:34.284Z,29152
2018-05-31T04:37:49.466Z,31744
2018-05-31T04:38:34.039Z,32736
2018-05-31T04:39:34.340Z,31808
2018-05-31T04:40:34.402Z,30240
2018-05-31T04:41:33.876Z,32608
2018-05-31T04:42:34.363Z,32608
2018-05-31T04:43:34.463Z,36960
2018-05-31T04:44:34.464Z,38656
2018-05-31T04:45:49.153Z,37632
2018-05-31T04:46:49.340Z,39360
2018-05-31T04:47:34.313Z,41792
2018-05-31T04:48:34.627Z,43680
2018-05-31T04:49:34.074Z,43328
2018-05-31T04:51:34.652Z,46656
2018-05-31T04:52:34.176Z,47616
2018-05-31T04:54:49.440Z,48128
2018-05-31T04:55:34.979Z,49952
2018-05-31T04:56:34.800Z,50368
2018-05-31T04:57:34.604Z,50176
2018-05-31T04:58:34.668Z,49504
2018-05-31T04:59:34.639Z,50400
2018-05-31T05:00:34.701Z,50432
2018-05-31T05:01:49.609Z,51392
2018-05-31T05:02:34.747Z,51264
2018-05-31T05:03:34.765Z,51296
2018-05-31T05:04:35.981Z,53888
2018-05-31T05:05:34.870Z,52960
2018-05-31T05:06:35.136Z,56352
2018-05-31T05:07:35.180Z,58368
2018-05-31T05:08:49.862Z,58304
2018-05-31T05:09:34.990Z,57952
2018-05-31T05:10:35.259Z,57184
2018-05-31T05:11:35.317Z,58624
2018-05-31T05:12:35.334Z,59712
2018-05-31T05:13:35.623Z,61248
2018-05-31T05:14:35.396Z,57792
2018-05-31T05:15:35.429Z,56704
2018-05-31T05:16:35.194Z,56608
2018-05-31T05:17:49.889Z,58432
2018-05-31T05:18:35.272Z,59776
2018-05-31T05:19:35.273Z,62880
2018-05-31T05:20:35.634Z,64352
2018-05-31T05:21:35.613Z,63104
2018-05-31T05:22:36.539Z,62880
2018-05-31T05:23:36.054Z,64512
2018-05-31T05:24:35.478Z,65376
2018-05-31T05:25:35.776Z,64736
2018-05-31T05:26:35.829Z,64832
2018-05-31T05:27:35.843Z,61536
2018-05-31T05:28:35.878Z,61344
2018-05-31T05:29:35.619Z,63872
2018-05-31T05:30:35.945Z,66304
2018-05-31T05:31:36.913Z,68192
2018-05-31T05:32:36.746Z,69344
2018-05-31T05:33:51.130Z,67872
2018-05-31T05:34:36.097Z,68672
2018-05-31T05:35:36.098Z,71904
2018-05-31T05:36:36.142Z,72032
2018-05-31T05:37:36.151Z,72256
2018-05-31T05:38:36.199Z,72864
2018-05-31T05:39:50.638Z,71744
2018-05-31T05:40:37.232Z,73888
2018-05-31T05:41:36.799Z,73632
2018-05-31T05:42:36.439Z,74592
2018-05-31T05:43:36.632Z,75936
2018-05-31T05:44:50.777Z,76128
2018-05-31T05:45:35.950Z,75104
2018-05-31T05:46:36.530Z,76256
2018-05-31T05:47:36.268Z,78688
2018-05-31T05:48:36.322Z,78592
2018-05-31T05:49:51.240Z,76992
2018-05-31T05:50:36.654Z,79072
2018-05-31T05:51:51.312Z,78976
2018-05-31T05:52:36.437Z,78752
2018-05-31T05:53:36.476Z,77088
2018-05-31T05:54:36.738Z,76224
2018-05-31T05:55:51.457Z,75936
2018-05-31T05:56:37.099Z,76800
2018-05-31T05:57:36.960Z,76960
2018-05-31T05:58:37.932Z,76992
2018-05-31T05:59:36.662Z,79360
2018-05-31T06:00:36.746Z,80640
2018-05-31T06:01:51.660Z,80160
2018-05-31T06:03:51.519Z,80288
2018-05-31T06:04:51.757Z,80480
2018-05-31T06:05:37.182Z,81344
2018-05-31T06:06:37.187Z,82944
2018-05-31T06:08:37.292Z,83712
2018-05-31T06:09:37.355Z,80800
2018-05-31T06:10:51.989Z,82784
2018-05-31T06:12:52.061Z,82464
2018-05-31T06:13:37.166Z,80480
2018-05-31T06:14:37.521Z,79552
2018-05-31T06:15:38.154Z,80384
2018-05-31T06:16:37.459Z,82880
2018-05-31T06:17:37.593Z,80928
2018-05-31T06:18:37.396Z,83040
2018-05-31T06:19:37.719Z,81408
2018-05-31T06:20:37.713Z,80384
2018-05-31T06:21:37.772Z,82976
2018-05-31T06:22:37.770Z,84992
2018-05-31T06:23:37.841Z,88864
2018-05-31T06:24:37.877Z,87552
2018-05-31T06:25:38.922Z,85920
2018-05-31T06:26:38.299Z,82688
2018-05-31T06:27:37.965Z,83072
2018-05-31T06:28:38.014Z,83680
2018-05-31T06:29:38.030Z,83296
2018-05-31T06:30:38.135Z,83296
2018-05-31T06:31:38.116Z,81920
2018-05-31T06:32:38.182Z,83360
2018-05-31T06:34:37.963Z,84160
2018-05-31T06:35:37.974Z,80576
2018-05-31T06:36:52.932Z,79200
2018-05-31T06:37:38.357Z,79424
2018-05-31T06:38:37.839Z,81344
2018-05-31T06:39:38.426Z,81568
2018-05-31T06:40:37.910Z,81344
2018-05-31T06:41:38.507Z,80480
2018-05-31T06:42:38.235Z,80256
2018-05-31T06:43:38.045Z,79360
2018-05-31T06:44:38.604Z,79328
2018-05-31T06:45:38.643Z,80384
2018-05-31T06:46:38.141Z,79744
2018-05-31T06:47:38.741Z,79488
2018-05-31T06:48:38.770Z,78208
2018-05-31T06:49:38.806Z,77536
2018-05-31T06:50:38.899Z,78176
2018-05-31T06:51:38.862Z,78432
2018-05-31T06:52:53.534Z,79648
2018-05-31T06:53:38.940Z,79008
2018-05-31T06:54:38.428Z,75680
2018-05-31T06:55:39.031Z,77920
2018-05-31T06:56:38.629Z,78720
2018-05-31T06:57:39.102Z,80128
2018-05-31T06:58:39.097Z,78304
2018-05-31T06:59:39.147Z,77792
2018-05-31T07:00:54.022Z,76992
2018-05-31T07:01:38.980Z,73472
2018-05-31T07:02:38.792Z,74752
2018-05-31T07:03:39.293Z,75872
2018-05-31T07:04:39.393Z,78208
2018-05-31T07:05:39.110Z,80832
2018-05-31T07:07:39.199Z,77472
2018-05-31T07:09:39.308Z,77760
2018-05-31T07:10:39.309Z,77184
2018-05-31T07:11:39.648Z,75072
2018-05-31T07:12:39.658Z,73248
2018-05-31T07:13:39.696Z,74656
2018-05-31T07:14:54.425Z,75936
2018-05-31T07:15:54.456Z,74784
2018-05-31T07:16:54.454Z,73664
2018-05-31T07:18:39.873Z,73312
2018-05-31T07:19:39.958Z,74720
2018-05-31T07:20:39.971Z,73856
2018-05-31T07:21:40.064Z,72640
2018-05-31T07:22:40.022Z,72320
2018-05-31T07:23:39.553Z,71808
2018-05-31T07:24:54.802Z,69312
2018-05-31T07:25:40.160Z,67648
2018-05-31T07:26:40.244Z,68192
2018-05-31T07:27:39.955Z,71392
2018-05-31T07:28:40.027Z,73152
2018-05-31T07:29:40.296Z,73216
2018-05-31T07:30:40.093Z,73216
2018-05-31T07:31:40.374Z,73056
2018-05-31T07:32:40.449Z,72416
2018-05-31T07:33:40.226Z,70208
2018-05-31T07:34:55.157Z,69504
2018-05-31T07:35:40.548Z,69408
2018-05-31T07:36:40.559Z,67296
2018-05-31T07:37:40.645Z,68000
2018-05-31T07:38:40.704Z,69568
2018-05-31T07:40:10.029Z,67296
2018-05-31T07:40:40.731Z,66048
2018-05-31T07:42:40.547Z,66400
2018-05-31T07:43:40.871Z,66176
2018-05-31T07:44:40.869Z,66848
2018-05-31T07:45:40.684Z,65504
2018-05-31T07:46:40.684Z,62624
2018-05-31T07:47:55.676Z,64256
2018-05-31T07:48:41.055Z,64736
2018-05-31T07:50:41.141Z,64352
2018-05-31T07:51:40.884Z,65120
2018-05-31T07:52:40.963Z,64192
2018-05-31T07:53:41.248Z,64160
2018-05-31T07:54:40.990Z,65888
2018-05-31T07:55:41.330Z,65216
2018-05-31T07:56:41.337Z,64352
2018-05-31T07:57:41.402Z,63008
2018-05-31T07:58:41.152Z,61696
2018-05-31T07:59:41.491Z,63104
2018-05-31T08:00:41.522Z,62528
2018-05-31T08:01:41.551Z,63168
2018-05-31T08:02:41.569Z,61376
2018-05-31T08:03:41.611Z,59744
2018-05-31T08:04:41.402Z,60256
2018-05-31T08:05:41.784Z,60768
2018-05-31T08:06:41.708Z,62592
2018-05-31T08:07:41.807Z,61952
2018-05-31T08:08:41.809Z,60416
2018-05-31T08:09:41.610Z,60032
2018-05-31T08:10:41.609Z,57088
2018-05-31T08:11:56.073Z,58816
2018-05-31T08:12:41.954Z,61568
2018-05-31T08:13:42.010Z,61344
2018-05-31T08:14:41.775Z,58240
2018-05-31T08:15:41.838Z,59552
2018-05-31T08:16:41.877Z,61984
2018-05-31T08:17:42.164Z,59328
2018-05-31T08:18:41.659Z,56672
2018-05-31T08:19:41.952Z,55520
2018-05-31T08:20:41.881Z,53888
2018-05-31T08:21:42.047Z,56064
2018-05-31T08:22:42.108Z,58560
2018-05-31T08:23:42.111Z,58272
2018-05-31T08:24:41.922Z,57888
2018-05-31T08:25:42.173Z,59360
2018-05-31T08:26:57.247Z,58272
2018-05-31T08:27:57.207Z,55264
2018-05-31T08:28:42.303Z,56960
2018-05-31T08:29:42.630Z,58208
2018-05-31T08:30:42.633Z,56736
2018-05-31T08:31:57.497Z,55008
2018-05-31T08:32:57.361Z,48352
2018-05-31T08:33:42.516Z,43616
2018-05-31T08:34:42.808Z,42496
2018-05-31T08:35:42.839Z,45184
2018-05-31T08:36:57.511Z,49472
2018-05-31T08:37:42.940Z,47136
2018-05-31T08:38:42.940Z,38176
2018-05-31T08:39:43.009Z,27712
2018-05-31T08:40:42.765Z,23776
2018-05-31T08:41:43.085Z,22912
2018-05-31T08:42:57.741Z,22656
2018-05-31T08:43:57.783Z,22432
2018-05-31T08:44:43.189Z,22336
2018-05-31T08:45:57.853Z,21920
2018-05-31T08:46:43.268Z,21888
2018-05-31T08:47:43.275Z,21952
2018-05-31T08:48:57.995Z,22048
2018-05-31T08:49:43.345Z,21856
2018-05-31T08:50:43.385Z,21856
2018-05-31T08:51:43.439Z,21824
2018-05-31T08:52:42.943Z,20928
2018-05-31T08:53:43.271Z,21056
2018-05-31T08:54:43.271Z,20992
2018-05-31T08:55:43.608Z,21344
2018-05-31T08:56:43.355Z,21312
2018-05-31T08:57:43.677Z,21312
2018-05-31T08:58:43.426Z,21184
2018-05-31T08:59:58.143Z,20960
2018-05-31T09:00:43.490Z,20928
2018-05-31T09:01:43.560Z,20928
2018-05-31T09:02:43.834Z,20864
2018-05-31T09:03:58.554Z,20800
2018-05-31T09:04:43.958Z,20832
2018-05-31T09:05:43.963Z,20832
2018-05-31T09:06:58.637Z,20640
2018-05-31T09:07:44.003Z,20480
2018-05-31T09:08:58.741Z,20288
2018-05-31T09:09:43.565Z,20224
2018-05-31T09:10:44.169Z,20192
2018-05-31T09:11:44.171Z,20192
2018-05-31T09:12:58.620Z,19904
2018-05-31T09:13:44.225Z,19680
2018-05-31T09:14:58.927Z,19520
2018-05-31T09:16:44.346Z,19488
2018-05-31T09:17:44.419Z,19552
2018-05-31T09:18:44.185Z,19520
2018-05-31T09:19:44.214Z,19456
2018-05-31T09:20:44.485Z,19360
2018-05-31T09:21:44.522Z,19136
2018-05-31T09:22:44.334Z,19104
2018-05-31T09:23:44.351Z,19264
2018-05-31T09:24:44.673Z,19040
2018-05-31T09:25:44.667Z,18848
2018-05-31T09:26:44.751Z,18784
2018-05-31T09:27:44.765Z,18720
2018-05-31T09:28:44.362Z,18592
2018-05-31T09:30:17.814Z,18464
2018-05-31T09:30:44.864Z,18496
2018-05-31T09:31:44.890Z,18304
2018-05-31T09:32:59.625Z,17940
2018-05-31T09:33:44.962Z,17780
2018-05-31T09:34:45.045Z,17824
2018-05-31T09:36:45.100Z,17604
2018-05-31T09:37:45.102Z,17620
2018-05-31T09:38:45.143Z,17568
2018-05-31T09:39:44.940Z,17472
2018-05-31T09:40:44.963Z,17388
2018-05-31T09:41:45.294Z,17264
2018-05-31T09:42:45.277Z,17252
2018-05-31T09:43:45.089Z,17052
2018-05-31T09:45:45.402Z,17068
2018-05-31T09:46:59.834Z,16976
2018-05-31T09:48:45.274Z,16820
2018-05-31T09:49:45.530Z,16596
2018-05-31T09:50:45.603Z,16416
2018-05-31T09:51:45.608Z,16252
2018-05-31T09:52:45.671Z,16188
2018-05-31T09:53:45.689Z,16140
2018-05-31T09:54:45.902Z,15904
2018-05-31T09:55:45.761Z,15820
2018-05-31T09:57:00.469Z,15792
2018-05-31T09:57:45.834Z,15728
2018-05-31T09:58:45.903Z,15724
2018-05-31T09:59:45.628Z,15764
2018-05-31T10:00:45.965Z,15724
2018-05-31T10:01:45.184Z,15724
2018-05-31T10:03:00.676Z,15696
2018-05-31T10:03:46.046Z,15660
2018-05-31T10:05:00.760Z,15632
2018-05-31T10:05:46.146Z,15744
2018-05-31T10:07:45.944Z,15472
2018-05-31T10:09:46.248Z,15332
2018-05-31T10:10:46.327Z,15300
2018-05-31T10:12:01.002Z,15224
2018-05-31T10:12:46.392Z,15192
2018-05-31T10:13:46.119Z,15120
2018-05-31T10:14:46.477Z,15044
2018-05-31T10:15:46.467Z,14952
2018-05-31T10:16:46.524Z,14844
2018-05-31T10:18:01.204Z,14868
2018-05-31T10:19:15.888Z,14728
2018-05-31T10:19:46.646Z,14712
2018-05-31T10:20:46.640Z,14780
2018-05-31T10:21:46.454Z,14644
2018-05-31T10:22:46.710Z,14548
2018-05-31T10:24:01.422Z,14288
2018-05-31T10:24:46.790Z,14280
2018-05-31T10:25:46.820Z,14192
2018-05-31T10:26:46.855Z,14172
2018-05-31T10:27:46.910Z,14108
2018-05-31T10:28:46.945Z,14024
2018-05-31T10:30:01.633Z,13920
2018-05-31T10:31:01.391Z,13880
2018-05-31T10:31:47.047Z,13868
2018-05-31T10:32:47.047Z,13764
2018-05-31T10:33:46.835Z,13648
2018-05-31T10:35:16.461Z,13644
2018-05-31T10:36:47.235Z,13516
2018-05-31T10:37:46.993Z,13480
2018-05-31T10:38:46.750Z,13528
2018-05-31T10:39:47.301Z,13468
2018-05-31T10:41:01.986Z,13376
2018-05-31T10:41:47.155Z,13364
2018-05-31T10:42:47.399Z,13332
2018-05-31T10:43:47.207Z,13272
2018-05-31T10:44:47.209Z,13196
2018-05-31T10:45:47.544Z,13164
2018-05-31T10:46:47.530Z,13112
2018-05-31T10:47:47.580Z,13096
2018-05-31T10:48:47.618Z,13104
2018-05-31T10:50:02.067Z,13076
2018-05-31T10:50:47.678Z,13032
2018-05-31T10:51:47.740Z,12980
2018-05-31T10:52:47.753Z,12920
2018-05-31T10:54:02.528Z,12832
2018-05-31T10:54:47.824Z,12772
2018-05-31T10:56:47.609Z,12548
2018-05-31T10:57:47.649Z,12480
2018-05-31T10:59:02.367Z,12444
2018-05-31T11:00:02.379Z,12380
2018-05-31T11:00:47.801Z,12328
2018-05-31T11:02:02.827Z,12200
2018-05-31T11:02:47.568Z,12148
2018-05-31T11:03:48.130Z,12076
2018-05-31T11:04:48.141Z,11956
2018-05-31T11:05:48.214Z,12028
2018-05-31T11:06:48.241Z,12024
2018-05-31T11:07:48.292Z,11920
2018-05-31T11:08:48.544Z,11892
2018-05-31T11:09:48.117Z,11812
2018-05-31T11:10:48.350Z,11612
2018-05-31T11:11:48.415Z,11468
2018-05-31T11:12:48.150Z,11304
2018-05-31T11:13:48.485Z,11144
2018-05-31T11:15:48.264Z,10880
2018-05-31T11:16:48.565Z,10736
2018-05-31T11:17:48.343Z,10576
2018-05-31T11:18:48.605Z,10512
2018-05-31T11:19:48.419Z,10324
2018-05-31T11:21:03.336Z,10184
2018-05-31T11:22:03.369Z,10096
2018-05-31T11:22:48.506Z,10016
2018-05-31T11:23:48.803Z,9900
2018-05-31T11:24:48.849Z,9900
2018-05-31T11:25:48.841Z,9756
2018-05-31T11:26:48.912Z,9676
2018-05-31T11:27:48.646Z,9568
2018-05-31T11:28:48.714Z,9424
2018-05-31T11:30:03.392Z,9340
2018-05-31T11:30:49.045Z,9316
2018-05-31T11:31:49.056Z,9228
2018-05-31T11:33:03.494Z,9112
2018-05-31T11:33:49.129Z,9036
2018-05-31T11:34:49.434Z,8972
2018-05-31T11:35:49.167Z,8908
2018-05-31T11:37:03.891Z,8816
2018-05-31T11:38:03.890Z,8688
2018-05-31T11:38:49.277Z,8624
2018-05-31T11:39:49.305Z,8588
2018-05-31T11:40:49.379Z,8536
2018-05-31T11:41:49.250Z,8484
2018-05-31T11:42:49.417Z,8440
2018-05-31T11:43:49.455Z,8404
2018-05-31T11:44:49.494Z,8340
2018-05-31T11:45:49.496Z,8300
2018-05-31T11:46:49.564Z,8248
2018-05-31T11:47:49.552Z,8260
2018-05-31T11:48:49.608Z,8208
2018-05-31T11:49:49.373Z,8204
2018-05-31T11:50:49.454Z,8176
2018-05-31T11:51:49.740Z,8152
2018-05-31T11:52:49.728Z,8144
2018-05-31T11:54:04.172Z,8196
2018-05-31T11:55:04.443Z,8276
2018-05-31T11:55:49.834Z,8416
2018-05-31T11:56:49.621Z,8520
2018-05-31T11:58:04.296Z,6984
2018-05-31T11:58:49.964Z,8504
2018-05-31T11:59:49.684Z,8504
2018-05-31T12:00:49.756Z,8432
2018-05-31T12:01:50.275Z,8336
2018-05-31T12:04:04.521Z,8372
2018-05-31T12:05:04.783Z,7552
2018-05-31T12:06:50.205Z,8156
2018-05-31T12:07:50.234Z,7164
2018-05-31T12:08:49.973Z,6540
2018-05-31T12:10:19.589Z,8620
2018-05-31T12:10:50.516Z,8712
2018-05-31T12:11:49.815Z,8688
2018-05-31T12:12:50.388Z,8780
2018-05-31T12:13:50.428Z,8808
2018-05-31T12:14:50.424Z,8896
2018-05-31T12:15:50.237Z,8896
2018-05-31T12:16:50.514Z,8912
2018-05-31T12:18:50.574Z,8984
2018-05-31T12:19:50.324Z,8868
2018-05-31T12:20:50.655Z,8808
2018-05-31T12:21:50.668Z,8764
2018-05-31T12:22:50.727Z,8788
2018-05-31T12:23:50.717Z,8804
2018-05-31T12:25:05.444Z,8724
2018-05-31T12:25:50.787Z,8740
2018-05-31T12:27:05.473Z,8832
2018-05-31T12:27:50.869Z,8856
2018-05-31T12:29:05.294Z,8680
2018-05-31T12:29:50.967Z,8980
2018-05-31T12:30:50.948Z,9148
2018-05-31T12:31:51.032Z,7084
2018-05-31T12:32:51.003Z,9236
2018-05-31T12:34:05.699Z,9336
2018-05-31T12:34:51.092Z,9248
2018-05-31T12:35:51.139Z,9132
2018-05-31T12:36:51.180Z,8916
2018-05-31T12:37:51.388Z,8636
2018-05-31T12:38:50.968Z,6388
2018-05-31T12:39:51.256Z,7888
2018-05-31T12:40:51.001Z,8644
2018-05-31T12:41:51.329Z,7348
2018-05-31T12:42:51.321Z,8872
2018-05-31T12:43:51.397Z,8852
2018-05-31T12:44:51.127Z,8716
2018-05-31T12:45:51.473Z,8580
2018-05-31T12:47:05.880Z,8444
2018-05-31T12:47:51.251Z,8348
2018-05-31T12:48:51.530Z,8032
2018-05-31T12:49:51.569Z,7764
2018-05-31T12:51:06.011Z,7464
2018-05-31T12:51:51.611Z,7676
2018-05-31T12:52:51.695Z,7192
2018-05-31T12:54:06.163Z,5360
2018-05-31T12:54:51.726Z,5396
2018-05-31T12:55:51.494Z,5500
2018-05-31T12:57:06.173Z,5608
2018-05-31T12:57:51.582Z,5652
2018-05-31T12:58:51.588Z,5700
2018-05-31T12:59:51.908Z,5792
2018-05-31T13:00:51.393Z,5832
2018-05-31T13:01:52.224Z,6068
2018-05-31T13:02:51.704Z,5872
2018-05-31T13:03:52.016Z,5856
2018-05-31T13:05:01.497Z,5780
2018-05-31T13:06:21.399Z,5820
2018-05-31T13:06:51.847Z,5820
2018-05-31T13:07:52.150Z,5732
2018-05-31T13:09:06.830Z,5692
2018-05-31T13:09:52.230Z,5688
2018-05-31T13:10:52.261Z,5704
2018-05-31T13:12:06.913Z,5648
2018-05-31T13:13:06.966Z,5676
2018-05-31T13:13:52.309Z,5752
2018-05-31T13:15:07.064Z,5996
2018-05-31T13:15:52.388Z,6104
2018-05-31T13:16:52.555Z,6220
2018-05-31T13:17:52.479Z,6228
2018-05-31T13:18:52.637Z,6108
2018-05-31T13:19:52.254Z,6028
2018-05-31T13:21:52.303Z,5700
2018-05-31T13:22:52.644Z,5676
2018-05-31T13:24:07.287Z,5564
2018-05-31T13:24:52.755Z,5596
2018-05-31T13:25:52.696Z,5712
2018-05-31T13:26:52.764Z,5892
2018-05-31T13:27:52.792Z,6124
2018-05-31T13:29:22.098Z,6344
2018-05-31T13:29:52.589Z,6372
2018-05-31T13:30:52.585Z,6296
2018-05-31T13:31:52.901Z,6232
2018-05-31T13:32:52.901Z,6228
2018-05-31T13:34:52.711Z,6508
2018-05-31T13:35:53.022Z,6552
2018-05-31T13:38:53.098Z,6252
2018-05-31T13:40:07.808Z,6136
2018-05-31T13:40:53.146Z,6000
2018-05-31T13:41:53.183Z,5784
2018-05-31T13:42:53.255Z,5628
2018-05-31T13:43:53.030Z,5512
2018-05-31T13:45:07.973Z,5348
2018-05-31T13:45:53.041Z,5320
2018-05-31T13:46:53.111Z,5412
2018-05-31T13:47:53.114Z,5532
2018-05-31T13:48:53.439Z,5624
2018-05-31T13:49:53.167Z,5632
2018-05-31T13:50:52.983Z,5624
2018-05-31T13:51:53.000Z,5556
2018-05-31T13:52:53.276Z,5464
2018-05-31T13:53:53.575Z,5424
2018-05-31T13:54:53.580Z,5484
2018-05-31T13:55:53.665Z,5588
2018-05-31T13:56:53.657Z,5664
2018-05-31T13:57:53.722Z,5680
2018-05-31T13:58:53.714Z,5700
2018-05-31T14:00:08.435Z,5756
2018-05-31T14:02:07.960Z,5896
2018-05-31T14:03:08.484Z,6008
2018-05-31T14:03:53.908Z,5984
2018-05-31T14:04:53.890Z,5916
2018-05-31T14:05:53.686Z,5828
2018-05-31T14:06:53.957Z,5708
2018-05-31T14:07:54.026Z,5576
2018-05-31T14:09:54.056Z,5436
2018-05-31T14:10:53.825Z,5460
2018-05-31T14:12:54.178Z,5732
2018-05-31T14:13:54.174Z,5884
2018-05-31T14:14:54.238Z,6020
2018-05-31T14:15:54.248Z,6168
2018-05-31T14:16:53.765Z,6944
2018-05-31T14:17:54.039Z,6640
2018-05-31T14:18:54.318Z,6608
2018-05-31T14:19:54.395Z,6512
2018-05-31T14:21:54.190Z,7720
2018-05-31T14:22:54.463Z,6188
2018-05-31T14:23:54.517Z,6488
2018-05-31T14:24:54.502Z,8388
2018-05-31T14:25:54.291Z,9048
2018-05-31T14:26:54.321Z,9140
2018-05-31T14:27:54.435Z,9176